sensor_id;sensor_type;location;lat;lon;timestamp;pressure;altitude;pressure_sealevel;temperature;humidity
76815;BME280;65768;49.906;19.384;2023-10-31T00:00:53;96886.06;;;20.36;48.65
76815;BME280;65768;49.906;19.384;2023-10-31T00:03:32;96890.93;;;20.59;47.77
76815;BME280;65768;49.906;19.384;2023-10-31T00:06:02;96888.77;;;20.68;47.56
76815;BME280;65768;49.906;19.384;2023-10-31T00:08:30;96879.59;;;20.73;46.70
76815;BME280;65768;49.906;19.384;2023-10-31T00:10:58;96878.13;;;20.88;46.37
76815;BME280;65768;49.906;19.384;2023-10-31T00:13:26;96889.54;;;20.90;45.01
76815;BME280;65768;49.906;19.384;2023-10-31T00:15:56;96904.23;;;21.24;44.78
76815;BME280;65768;49.906;19.384;2023-10-31T00:18:25;96905.66;;;21.29;46.08
76815;BME280;65768;49.906;19.384;2023-10-31T00:20:53;96906.84;;;20.94;47.41
76815;BME280;65768;49.906;19.384;2023-10-31T00:23:22;96914.34;;;20.76;49.25
76815;BME280;65768;49.906;19.384;2023-10-31T00:25:50;96911.03;;;20.45;50.17
76815;BME280;65768;49.906;19.384;2023-10-31T00:28:19;96897.83;;;20.17;50.33
76815;BME280;65768;49.906;19.384;2023-10-31T00:30:47;96884.84;;;20.07;50.83
76815;BME280;65768;49.906;19.384;2023-10-31T00:33:15;96898.17;;;19.96;51.39
76815;BME280;65768;49.906;19.384;2023-10-31T00:35:43;96888.47;;;19.72;50.48
76815;BME280;65768;49.906;19.384;2023-10-31T00:38:12;96884.00;;;19.91;50.58
76815;BME280;65768;49.906;19.384;2023-10-31T00:40:40;96872.77;;;19.95;48.34
76815;BME280;65768;49.906;19.384;2023-10-31T00:43:08;96862.34;;;20.34;48.05
76815;BME280;65768;49.906;19.384;2023-10-31T00:45:37;96855.35;;;20.26;49.42
76815;BME280;65768;49.906;19.384;2023-10-31T00:48:05;96853.68;;;20.07;49.70
76815;BME280;65768;49.906;19.384;2023-10-31T00:50:33;96858.42;;;20.01;49.57
76815;BME280;65768;49.906;19.384;2023-10-31T00:53:03;96848.32;;;19.93;49.06
76815;BME280;65768;49.906;19.384;2023-10-31T00:55:31;96838.66;;;20.13;48.18
76815;BME280;65768;49.906;19.384;2023-10-31T00:58:00;96835.02;;;20.26;48.59
76815;BME280;65768;49.906;19.384;2023-10-31T01:00:28;96827.32;;;20.24;48.03
76815;BME280;65768;49.906;19.384;2023-10-31T01:02:57;96813.10;;;20.31;47.32
76815;BME280;65768;49.906;19.384;2023-10-31T01:05:25;96816.73;;;20.47;46.77
76815;BME280;65768;49.906;19.384;2023-10-31T01:07:57;96801.27;;;20.57;47.17
76815;BME280;65768;49.906;19.384;2023-10-31T01:10:25;96800.04;;;20.48;47.28
76815;BME280;65768;49.906;19.384;2023-10-31T01:12:54;96792.31;;;20.38;47.65
76815;BME280;65768;49.906;19.384;2023-10-31T01:15:22;96777.92;;;20.19;48.33
76815;BME280;65768;49.906;19.384;2023-10-31T01:17:50;96773.76;;;20.18;47.91
76815;BME280;65768;49.906;19.384;2023-10-31T01:20:18;96750.41;;;20.20;46.17
76815;BME280;65768;49.906;19.384;2023-10-31T01:22:47;96759.88;;;20.59;46.08
76815;BME280;65768;49.906;19.384;2023-10-31T01:25:15;96756.58;;;20.38;46.89
76815;BME280;65768;49.906;19.384;2023-10-31T01:27:43;96750.37;;;20.38;45.60
76815;BME280;65768;49.906;19.384;2023-10-31T01:30:12;96735.52;;;20.77;44.67
76815;BME280;65768;49.906;19.384;2023-10-31T01:32:41;96713.46;;;20.89;44.25
76815;BME280;65768;49.906;19.384;2023-10-31T01:35:10;96697.19;;;21.03;44.04
76815;BME280;65768;49.906;19.384;2023-10-31T01:37:38;96686.71;;;21.06;43.97
76815;BME280;65768;49.906;19.384;2023-10-31T01:40:08;96690.95;;;21.06;43.41
76815;BME280;65768;49.906;19.384;2023-10-31T01:42:36;96683.25;;;21.23;42.70
76815;BME280;65768;49.906;19.384;2023-10-31T01:45:08;96676.58;;;21.33;42.95
76815;BME280;65768;49.906;19.384;2023-10-31T01:47:38;96679.98;;;21.24;42.80
76815;BME280;65768;49.906;19.384;2023-10-31T01:50:06;96683.30;;;21.36;42.92
76815;BME280;65768;49.906;19.384;2023-10-31T01:52:38;96685.61;;;21.28;42.95
76815;BME280;65768;49.906;19.384;2023-10-31T01:55:07;96694.41;;;21.42;42.62
76815;BME280;65768;49.906;19.384;2023-10-31T01:57:38;96692.16;;;21.44;42.31
76815;BME280;65768;49.906;19.384;2023-10-31T02:00:09;96683.27;;;21.60;42.25
76815;BME280;65768;49.906;19.384;2023-10-31T02:02:39;96680.40;;;21.63;41.90
76815;BME280;65768;49.906;19.384;2023-10-31T02:05:10;96673.74;;;21.69;41.99
76815;BME280;65768;49.906;19.384;2023-10-31T02:07:38;96665.83;;;21.63;41.98
76815;BME280;65768;49.906;19.384;2023-10-31T02:10:07;96661.51;;;21.67;42.15
76815;BME280;65768;49.906;19.384;2023-10-31T02:12:37;96659.56;;;21.54;42.27
76815;BME280;65768;49.906;19.384;2023-10-31T02:15:07;96653.18;;;21.54;42.40
76815;BME280;65768;49.906;19.384;2023-10-31T02:17:36;96653.58;;;21.30;42.28
76815;BME280;65768;49.906;19.384;2023-10-31T02:20:06;96658.70;;;21.59;41.84
76815;BME280;65768;49.906;19.384;2023-10-31T02:22:35;96661.41;;;21.58;41.61
76815;BME280;65768;49.906;19.384;2023-10-31T02:25:15;96650.33;;;21.62;41.57
76815;BME280;65768;49.906;19.384;2023-10-31T02:27:46;96642.74;;;21.56;41.87
76815;BME280;65768;49.906;19.384;2023-10-31T02:30:16;96644.83;;;21.51;41.61
76815;BME280;65768;49.906;19.384;2023-10-31T02:32:46;96642.79;;;21.53;42.11
76815;BME280;65768;49.906;19.384;2023-10-31T02:35:17;96639.70;;;21.44;41.40
76815;BME280;65768;49.906;19.384;2023-10-31T02:37:47;96637.64;;;21.58;40.73
76815;BME280;65768;49.906;19.384;2023-10-31T02:40:19;96649.17;;;21.78;40.26
76815;BME280;65768;49.906;19.384;2023-10-31T02:42:47;96658.91;;;21.71;40.24
76815;BME280;65768;49.906;19.384;2023-10-31T02:45:16;96664.55;;;21.64;40.58
76815;BME280;65768;49.906;19.384;2023-10-31T02:47:45;96665.34;;;21.68;39.61
76815;BME280;65768;49.906;19.384;2023-10-31T02:50:13;96663.09;;;21.77;39.65
76815;BME280;65768;49.906;19.384;2023-10-31T02:52:42;96654.45;;;21.84;39.66
76815;BME280;65768;49.906;19.384;2023-10-31T02:55:10;96659.33;;;21.73;39.89
76815;BME280;65768;49.906;19.384;2023-10-31T02:57:39;96656.46;;;21.76;40.04
76815;BME280;65768;49.906;19.384;2023-10-31T03:00:43;96662.71;;;21.77;40.79
76815;BME280;65768;49.906;19.384;2023-10-31T03:03:13;96657.14;;;21.63;40.94
76815;BME280;65768;49.906;19.384;2023-10-31T03:05:42;96648.86;;;21.60;41.19
76815;BME280;65768;49.906;19.384;2023-10-31T03:08:13;96637.33;;;21.60;41.26
76815;BME280;65768;49.906;19.384;2023-10-31T03:10:42;96636.05;;;21.37;41.35
76815;BME280;65768;49.906;19.384;2023-10-31T03:13:11;96634.58;;;21.51;41.53
76815;BME280;65768;49.906;19.384;2023-10-31T03:15:39;96641.17;;;21.40;41.62
76815;BME280;65768;49.906;19.384;2023-10-31T03:18:08;96642.39;;;21.51;41.73
76815;BME280;65768;49.906;19.384;2023-10-31T03:20:39;96640.77;;;21.51;42.03
76815;BME280;65768;49.906;19.384;2023-10-31T03:23:08;96634.20;;;21.38;42.35
76815;BME280;65768;49.906;19.384;2023-10-31T03:25:36;96630.90;;;21.16;42.79
76815;BME280;65768;49.906;19.384;2023-10-31T03:28:18;96641.80;;;21.25;42.43
76815;BME280;65768;49.906;19.384;2023-10-31T03:30:48;96642.67;;;21.30;42.97
76815;BME280;65768;49.906;19.384;2023-10-31T03:33:16;96643.02;;;21.15;43.29
76815;BME280;65768;49.906;19.384;2023-10-31T03:35:46;96642.92;;;21.17;43.26
76815;BME280;65768;49.906;19.384;2023-10-31T03:38:15;96636.20;;;21.16;43.17
76815;BME280;65768;49.906;19.384;2023-10-31T03:40:43;96624.00;;;21.16;42.69
76815;BME280;65768;49.906;19.384;2023-10-31T03:43:11;96619.99;;;21.20;43.17
76815;BME280;65768;49.906;19.384;2023-10-31T03:45:41;96622.33;;;21.07;43.36
76815;BME280;65768;49.906;19.384;2023-10-31T03:48:10;96625.72;;;21.12;43.77
76815;BME280;65768;49.906;19.384;2023-10-31T03:50:38;96623.08;;;21.03;42.95
76815;BME280;65768;49.906;19.384;2023-10-31T03:53:06;96611.92;;;21.27;42.93
76815;BME280;65768;49.906;19.384;2023-10-31T03:55:35;96596.23;;;21.13;43.26
76815;BME280;65768;49.906;19.384;2023-10-31T03:58:03;96595.33;;;21.26;42.59
76815;BME280;65768;49.906;19.384;2023-10-31T04:00:31;96597.90;;;21.25;42.85
76815;BME280;65768;49.906;19.384;2023-10-31T04:03:01;96602.00;;;21.11;43.49
76815;BME280;65768;49.906;19.384;2023-10-31T04:05:30;96601.16;;;21.00;45.07
76815;BME280;65768;49.906;19.384;2023-10-31T04:07:59;96585.92;;;20.76;45.38
76815;BME280;65768;49.906;19.384;2023-10-31T04:10:29;96585.55;;;20.74;45.00
76815;BME280;65768;49.906;19.384;2023-10-31T04:12:57;96578.45;;;20.61;45.79
76815;BME280;65768;49.906;19.384;2023-10-31T04:15:25;96574.48;;;20.70;44.57
76815;BME280;65768;49.906;19.384;2023-10-31T04:17:53;96572.92;;;20.77;44.51
76815;BME280;65768;49.906;19.384;2023-10-31T04:20:21;96568.18;;;20.72;45.01
76815;BME280;65768;49.906;19.384;2023-10-31T04:22:50;96564.32;;;20.79;43.96
76815;BME280;65768;49.906;19.384;2023-10-31T04:25:18;96559.03;;;20.81;43.41
76815;BME280;65768;49.906;19.384;2023-10-31T04:27:48;96567.39;;;20.99;42.49
76815;BME280;65768;49.906;19.384;2023-10-31T04:30:17;96564.31;;;21.18;42.14
76815;BME280;65768;49.906;19.384;2023-10-31T04:32:45;96562.00;;;21.21;42.24
76815;BME280;65768;49.906;19.384;2023-10-31T04:35:13;96559.08;;;21.19;42.39
76815;BME280;65768;49.906;19.384;2023-10-31T04:37:41;96533.00;;;20.97;42.69
76815;BME280;65768;49.906;19.384;2023-10-31T04:40:12;96551.73;;;21.10;42.11
76815;BME280;65768;49.906;19.384;2023-10-31T04:42:42;96563.05;;;21.26;41.58
76815;BME280;65768;49.906;19.384;2023-10-31T04:45:10;96556.89;;;21.39;41.59
76815;BME280;65768;49.906;19.384;2023-10-31T04:47:38;96558.30;;;21.28;42.62
76815;BME280;65768;49.906;19.384;2023-10-31T04:50:07;96557.80;;;21.20;41.87
76815;BME280;65768;49.906;19.384;2023-10-31T04:52:35;96551.05;;;21.31;41.31
76815;BME280;65768;49.906;19.384;2023-10-31T04:55:05;96557.38;;;21.34;41.38
76815;BME280;65768;49.906;19.384;2023-10-31T04:57:33;96549.77;;;21.29;41.72
76815;BME280;65768;49.906;19.384;2023-10-31T05:00:02;96553.52;;;21.20;41.89
76815;BME280;65768;49.906;19.384;2023-10-31T05:02:33;96546.78;;;21.03;42.06
76815;BME280;65768;49.906;19.384;2023-10-31T05:05:02;96564.25;;;20.98;42.85
76815;BME280;65768;49.906;19.384;2023-10-31T05:07:30;96564.15;;;20.92;43.32
76815;BME280;65768;49.906;19.384;2023-10-31T05:10:03;96567.18;;;20.78;43.42
76815;BME280;65768;49.906;19.384;2023-10-31T05:12:32;96563.86;;;20.73;43.61
76815;BME280;65768;49.906;19.384;2023-10-31T05:15:01;96564.71;;;20.63;43.95
76815;BME280;65768;49.906;19.384;2023-10-31T05:17:29;96570.39;;;20.73;43.49
76815;BME280;65768;49.906;19.384;2023-10-31T05:19:59;96572.09;;;20.72;44.57
76815;BME280;65768;49.906;19.384;2023-10-31T05:22:28;96564.11;;;20.50;45.00
76815;BME280;65768;49.906;19.384;2023-10-31T05:24:58;96563.66;;;20.54;44.21
76815;BME280;65768;49.906;19.384;2023-10-31T05:27:27;96547.58;;;20.62;43.89
76815;BME280;65768;49.906;19.384;2023-10-31T05:29:56;96542.43;;;20.49;44.09
76815;BME280;65768;49.906;19.384;2023-10-31T05:32:24;96546.24;;;20.74;43.01
76815;BME280;65768;49.906;19.384;2023-10-31T05:34:53;96537.32;;;20.83;43.10
76815;BME280;65768;49.906;19.384;2023-10-31T05:37:21;96536.55;;;20.81;43.51
76815;BME280;65768;49.906;19.384;2023-10-31T05:39:51;96542.91;;;20.71;43.59
76815;BME280;65768;49.906;19.384;2023-10-31T05:42:19;96542.32;;;20.66;42.74
76815;BME280;65768;49.906;19.384;2023-10-31T05:44:49;96522.71;;;20.84;42.09
76815;BME280;65768;49.906;19.384;2023-10-31T05:47:19;96528.39;;;21.02;42.43
76815;BME280;65768;49.906;19.384;2023-10-31T05:49:49;96532.42;;;21.08;42.06
76815;BME280;65768;49.906;19.384;2023-10-31T05:52:19;96527.13;;;21.15;42.01
76815;BME280;65768;49.906;19.384;2023-10-31T05:54:47;96535.56;;;21.21;41.41
76815;BME280;65768;49.906;19.384;2023-10-31T05:57:15;96538.48;;;21.30;41.47
76815;BME280;65768;49.906;19.384;2023-10-31T05:59:43;96531.74;;;21.33;41.19
76815;BME280;65768;49.906;19.384;2023-10-31T06:02:14;96540.20;;;21.31;41.68
76815;BME280;65768;49.906;19.384;2023-10-31T06:04:42;96538.62;;;21.15;42.19
76815;BME280;65768;49.906;19.384;2023-10-31T06:07:11;96542.77;;;21.12;42.27
76815;BME280;65768;49.906;19.384;2023-10-31T06:09:39;96543.25;;;21.15;42.09
76815;BME280;65768;49.906;19.384;2023-10-31T06:12:08;96531.33;;;21.16;42.43
76815;BME280;65768;49.906;19.384;2023-10-31T06:14:37;96532.36;;;21.09;43.03
76815;BME280;65768;49.906;19.384;2023-10-31T06:17:06;96542.06;;;21.09;42.86
76815;BME280;65768;49.906;19.384;2023-10-31T06:19:35;96547.11;;;21.11;43.11
76815;BME280;65768;49.906;19.384;2023-10-31T06:22:04;96553.66;;;21.03;42.97
76815;BME280;65768;49.906;19.384;2023-10-31T06:24:32;96570.90;;;21.10;42.82
76815;BME280;65768;49.906;19.384;2023-10-31T06:27:00;96572.61;;;21.26;42.12
76815;BME280;65768;49.906;19.384;2023-10-31T06:29:28;96581.19;;;21.33;41.82
76815;BME280;65768;49.906;19.384;2023-10-31T06:31:57;96586.86;;;21.28;43.24
76815;BME280;65768;49.906;19.384;2023-10-31T06:34:25;96580.82;;;21.07;43.51
76815;BME280;65768;49.906;19.384;2023-10-31T06:36:54;96595.58;;;21.14;42.52
76815;BME280;65768;49.906;19.384;2023-10-31T06:39:22;96594.70;;;21.12;43.01
76815;BME280;65768;49.906;19.384;2023-10-31T06:41:54;96602.02;;;21.14;43.14
76815;BME280;65768;49.906;19.384;2023-10-31T06:44:24;96603.58;;;21.09;43.68
76815;BME280;65768;49.906;19.384;2023-10-31T06:46:53;96601.55;;;20.91;44.00
76815;BME280;65768;49.906;19.384;2023-10-31T06:49:21;96593.16;;;20.63;44.66
76815;BME280;65768;49.906;19.384;2023-10-31T06:51:51;96603.90;;;20.56;46.27
76815;BME280;65768;49.906;19.384;2023-10-31T06:54:19;96623.72;;;20.56;44.78
76815;BME280;65768;49.906;19.384;2023-10-31T06:56:47;96619.92;;;20.71;45.09
76815;BME280;65768;49.906;19.384;2023-10-31T06:59:17;96609.73;;;20.83;45.27
76815;BME280;65768;49.906;19.384;2023-10-31T07:01:45;96591.69;;;20.67;45.45
76815;BME280;65768;49.906;19.384;2023-10-31T07:04:16;96578.73;;;20.54;46.66
76815;BME280;65768;49.906;19.384;2023-10-31T07:06:44;96601.55;;;20.54;45.56
76815;BME280;65768;49.906;19.384;2023-10-31T07:09:13;96594.69;;;20.78;44.50
76815;BME280;65768;49.906;19.384;2023-10-31T07:11:42;96570.88;;;20.92;44.36
76815;BME280;65768;49.906;19.384;2023-10-31T07:14:10;96571.70;;;21.00;44.17
76815;BME280;65768;49.906;19.384;2023-10-31T07:16:38;96582.90;;;21.11;44.55
76815;BME280;65768;49.906;19.384;2023-10-31T07:19:06;96583.48;;;21.02;47.68
76815;BME280;65768;49.906;19.384;2023-10-31T07:21:34;96594.91;;;20.88;47.87
76815;BME280;65768;49.906;19.384;2023-10-31T07:24:03;96578.81;;;20.61;47.59
76815;BME280;65768;49.906;19.384;2023-10-31T07:26:31;96615.86;;;20.52;48.04
76815;BME280;65768;49.906;19.384;2023-10-31T07:29:00;96616.73;;;20.52;49.48
76815;BME280;65768;49.906;19.384;2023-10-31T07:31:28;96620.98;;;20.44;48.01
76815;BME280;65768;49.906;19.384;2023-10-31T07:33:56;96630.32;;;20.53;47.62
76815;BME280;65768;49.906;19.384;2023-10-31T07:36:25;96624.46;;;20.50;46.33
76815;BME280;65768;49.906;19.384;2023-10-31T07:38:53;96618.58;;;20.67;44.94
76815;BME280;65768;49.906;19.384;2023-10-31T07:41:21;96630.41;;;20.92;45.62
76815;BME280;65768;49.906;19.384;2023-10-31T07:43:49;96635.25;;;21.07;45.97
76815;BME280;65768;49.906;19.384;2023-10-31T07:46:18;96623.13;;;20.54;45.55
76815;BME280;65768;49.906;19.384;2023-10-31T07:48:47;96625.52;;;20.50;45.86
76815;BME280;65768;49.906;19.384;2023-10-31T07:51:15;96603.16;;;20.67;46.36
76815;BME280;65768;49.906;19.384;2023-10-31T07:53:43;96599.16;;;20.75;46.73
76815;BME280;65768;49.906;19.384;2023-10-31T07:56:18;96603.88;;;20.62;46.84
76815;BME280;65768;49.906;19.384;2023-10-31T07:58:51;96624.45;;;21.04;46.63
76815;BME280;65768;49.906;19.384;2023-10-31T08:01:21;96633.69;;;20.83;46.91
76815;BME280;65768;49.906;19.384;2023-10-31T08:03:52;96643.25;;;21.04;46.21
76815;BME280;65768;49.906;19.384;2023-10-31T08:06:20;96649.18;;;21.05;46.91
76815;BME280;65768;49.906;19.384;2023-10-31T08:08:49;96653.36;;;20.98;47.16
76815;BME280;65768;49.906;19.384;2023-10-31T08:11:17;96656.56;;;20.82;47.25
76815;BME280;65768;49.906;19.384;2023-10-31T08:13:45;96656.79;;;20.84;47.38
76815;BME280;65768;49.906;19.384;2023-10-31T08:16:19;96660.55;;;20.83;47.10
76815;BME280;65768;49.906;19.384;2023-10-31T08:18:48;96650.48;;;20.83;47.28
76815;BME280;65768;49.906;19.384;2023-10-31T08:21:17;96663.02;;;20.75;47.79
76815;BME280;65768;49.906;19.384;2023-10-31T08:23:45;96659.73;;;20.77;47.84
76815;BME280;65768;49.906;19.384;2023-10-31T08:26:16;96660.29;;;20.77;48.23
76815;BME280;65768;49.906;19.384;2023-10-31T08:28:44;96657.82;;;20.44;48.75
76815;BME280;65768;49.906;19.384;2023-10-31T08:31:12;96665.48;;;20.54;48.45
76815;BME280;65768;49.906;19.384;2023-10-31T08:33:41;96671.84;;;20.62;48.68
76815;BME280;65768;49.906;19.384;2023-10-31T08:36:10;96681.06;;;20.34;49.23
76815;BME280;65768;49.906;19.384;2023-10-31T08:38:39;96678.39;;;20.40;48.90
76815;BME280;65768;49.906;19.384;2023-10-31T08:41:08;96690.00;;;20.07;49.53
76815;BME280;65768;49.906;19.384;2023-10-31T08:43:37;96684.39;;;19.92;49.79
76815;BME280;65768;49.906;19.384;2023-10-31T08:46:05;96692.92;;;19.97;49.94
76815;BME280;65768;49.906;19.384;2023-10-31T08:48:34;96706.20;;;20.14;49.45
76815;BME280;65768;49.906;19.384;2023-10-31T08:51:03;96717.20;;;20.17;49.56
76815;BME280;65768;49.906;19.384;2023-10-31T08:53:32;96727.69;;;20.10;49.84
76815;BME280;65768;49.906;19.384;2023-10-31T08:56:00;96725.23;;;20.13;50.16
76815;BME280;65768;49.906;19.384;2023-10-31T08:58:29;96722.67;;;19.79;50.33
76815;BME280;65768;49.906;19.384;2023-10-31T09:00:58;96726.02;;;20.00;49.82
76815;BME280;65768;49.906;19.384;2023-10-31T09:03:26;96725.52;;;19.97;49.57
76815;BME280;65768;49.906;19.384;2023-10-31T09:05:55;96735.95;;;19.70;50.10
76815;BME280;65768;49.906;19.384;2023-10-31T09:08:23;96736.14;;;19.82;49.74
76815;BME280;65768;49.906;19.384;2023-10-31T09:10:51;96741.02;;;19.86;49.48
76815;BME280;65768;49.906;19.384;2023-10-31T09:13:19;96743.84;;;19.71;50.25
76815;BME280;65768;49.906;19.384;2023-10-31T09:15:47;96745.53;;;19.90;49.74
76815;BME280;65768;49.906;19.384;2023-10-31T09:18:18;96755.35;;;19.89;49.45
76815;BME280;65768;49.906;19.384;2023-10-31T09:20:46;96765.23;;;19.89;49.47
76815;BME280;65768;49.906;19.384;2023-10-31T09:23:16;96767.60;;;19.88;50.01
76815;BME280;65768;49.906;19.384;2023-10-31T09:25:46;96774.39;;;19.84;49.86
76815;BME280;65768;49.906;19.384;2023-10-31T09:28:14;96774.34;;;19.82;50.28
76815;BME280;65768;49.906;19.384;2023-10-31T09:30:43;96775.39;;;19.61;50.35
76815;BME280;65768;49.906;19.384;2023-10-31T09:33:13;96778.27;;;19.54;50.48
76815;BME280;65768;49.906;19.384;2023-10-31T09:35:41;96780.96;;;19.77;50.05
76815;BME280;65768;49.906;19.384;2023-10-31T09:38:09;96779.14;;;19.75;50.41
76815;BME280;65768;49.906;19.384;2023-10-31T09:40:40;96776.66;;;19.82;50.64
76815;BME280;65768;49.906;19.384;2023-10-31T09:43:09;96784.89;;;19.74;50.94
76815;BME280;65768;49.906;19.384;2023-10-31T09:45:38;96779.41;;;19.53;51.00
76815;BME280;65768;49.906;19.384;2023-10-31T09:48:07;96781.02;;;19.88;50.64
76815;BME280;65768;49.906;19.384;2023-10-31T09:50:36;96784.83;;;19.81;50.67
76815;BME280;65768;49.906;19.384;2023-10-31T09:53:05;96785.95;;;19.89;50.21
76815;BME280;65768;49.906;19.384;2023-10-31T09:55:35;96785.14;;;19.60;51.26
76815;BME280;65768;49.906;19.384;2023-10-31T09:58:23;96791.14;;;19.36;51.18
76815;BME280;65768;49.906;19.384;2023-10-31T10:00:51;96794.29;;;19.31;51.66
76815;BME280;65768;49.906;19.384;2023-10-31T10:03:20;96790.90;;;19.34;52.04
76815;BME280;65768;49.906;19.384;2023-10-31T10:05:49;96792.90;;;19.28;51.83
76815;BME280;65768;49.906;19.384;2023-10-31T10:08:19;96789.09;;;19.04;52.30
76815;BME280;65768;49.906;19.384;2023-10-31T10:10:48;96794.10;;;19.12;52.14
76815;BME280;65768;49.906;19.384;2023-10-31T10:13:22;96790.90;;;19.00;52.13
76815;BME280;65768;49.906;19.384;2023-10-31T10:15:51;96790.66;;;18.98;52.66
76815;BME280;65768;49.906;19.384;2023-10-31T10:18:31;96795.05;;;18.89;52.71
76815;BME280;65768;49.906;19.384;2023-10-31T10:21:02;96787.54;;;18.97;52.61
76815;BME280;65768;49.906;19.384;2023-10-31T10:23:31;96798.86;;;18.74;53.22
76815;BME280;65768;49.906;19.384;2023-10-31T10:26:01;96790.01;;;18.68;53.65
76815;BME280;65768;49.906;19.384;2023-10-31T10:28:30;96780.04;;;18.83;53.42
76815;BME280;65768;49.906;19.384;2023-10-31T10:30:58;96778.60;;;18.80;53.43
76815;BME280;65768;49.906;19.384;2023-10-31T10:33:30;96776.48;;;18.87;53.55
76815;BME280;65768;49.906;19.384;2023-10-31T10:35:59;96783.08;;;18.82;53.46
76815;BME280;65768;49.906;19.384;2023-10-31T10:38:28;96783.79;;;19.13;52.86
76815;BME280;65768;49.906;19.384;2023-10-31T10:41:00;96783.95;;;19.26;52.06
76815;BME280;65768;49.906;19.384;2023-10-31T10:43:31;96787.52;;;19.20;52.70
76815;BME280;65768;49.906;19.384;2023-10-31T10:46:04;96796.25;;;19.12;53.18
76815;BME280;65768;49.906;19.384;2023-10-31T10:48:35;96798.29;;;19.10;52.85
76815;BME280;65768;49.906;19.384;2023-10-31T10:51:24;96805.27;;;18.99;53.64
76815;BME280;65768;49.906;19.384;2023-10-31T10:57:10;96812.41;;;19.41;53.39
76815;BME280;65768;49.906;19.384;2023-10-31T10:59:43;96818.02;;;19.17;53.23
76815;BME280;65768;49.906;19.384;2023-10-31T11:02:18;96821.17;;;19.27;53.10
76815;BME280;65768;49.906;19.384;2023-10-31T11:04:51;96816.30;;;19.47;53.61
76815;BME280;65768;49.906;19.384;2023-10-31T11:07:20;96799.09;;;19.45;53.37
76815;BME280;65768;49.906;19.384;2023-10-31T11:09:50;96812.85;;;19.52;53.67
76815;BME280;65768;49.906;19.384;2023-10-31T11:12:20;96814.74;;;19.35;53.84
76815;BME280;65768;49.906;19.384;2023-10-31T11:14:50;96814.54;;;19.41;53.42
76815;BME280;65768;49.906;19.384;2023-10-31T11:17:31;96824.56;;;19.36;53.66
76815;BME280;65768;49.906;19.384;2023-10-31T11:20:00;96827.19;;;18.92;53.84
76815;BME280;65768;49.906;19.384;2023-10-31T11:22:41;96840.61;;;18.76;54.52
76815;BME280;65768;49.906;19.384;2023-10-31T11:25:13;96840.11;;;18.59;54.46
76815;BME280;65768;49.906;19.384;2023-10-31T11:27:42;96837.47;;;18.95;54.65
76815;BME280;65768;49.906;19.384;2023-10-31T11:30:30;96836.55;;;19.02;54.38
76815;BME280;65768;49.906;19.384;2023-10-31T11:33:00;96833.11;;;19.03;54.27
76815;BME280;65768;49.906;19.384;2023-10-31T11:35:29;96831.11;;;19.20;54.37
76815;BME280;65768;49.906;19.384;2023-10-31T11:38:02;96830.89;;;19.28;54.03
76815;BME280;65768;49.906;19.384;2023-10-31T11:40:31;96829.13;;;19.17;54.28
76815;BME280;65768;49.906;19.384;2023-10-31T11:43:04;96834.16;;;19.10;54.51
76815;BME280;65768;49.906;19.384;2023-10-31T11:45:40;96839.44;;;19.16;55.66
76815;BME280;65768;49.906;19.384;2023-10-31T11:48:16;96836.83;;;19.28;55.24
76815;BME280;65768;49.906;19.384;2023-10-31T11:50:49;96833.84;;;19.25;54.62
76815;BME280;65768;49.906;19.384;2023-10-31T11:53:18;96820.31;;;19.33;55.51
76815;BME280;65768;49.906;19.384;2023-10-31T11:55:46;96814.58;;;19.37;55.92
76815;BME280;65768;49.906;19.384;2023-10-31T11:58:25;96811.15;;;19.32;56.17
76815;BME280;65768;49.906;19.384;2023-10-31T12:01:06;96810.98;;;19.29;56.27
76815;BME280;65768;49.906;19.384;2023-10-31T12:03:41;96802.11;;;19.33;56.29
76815;BME280;65768;49.906;19.384;2023-10-31T12:06:10;96792.11;;;19.44;54.99
76815;BME280;65768;49.906;19.384;2023-10-31T12:08:40;96787.46;;;19.54;55.44
76815;BME280;65768;49.906;19.384;2023-10-31T12:11:17;96786.01;;;19.73;55.50
76815;BME280;65768;49.906;19.384;2023-10-31T12:13:54;96777.51;;;19.97;55.18
76815;BME280;65768;49.906;19.384;2023-10-31T12:16:34;96780.54;;;20.05;54.43
76815;BME280;65768;49.906;19.384;2023-10-31T12:19:04;96768.16;;;20.11;53.93
76815;BME280;65768;49.906;19.384;2023-10-31T12:21:37;96753.29;;;19.94;52.03
76815;BME280;65768;49.906;19.384;2023-10-31T12:24:17;96736.50;;;20.30;52.63
76815;BME280;65768;49.906;19.384;2023-10-31T12:26:46;96742.13;;;20.60;53.20
76815;BME280;65768;49.906;19.384;2023-10-31T12:29:19;96741.05;;;20.54;51.85
76815;BME280;65768;49.906;19.384;2023-10-31T12:31:50;96741.14;;;20.30;52.63
76815;BME280;65768;49.906;19.384;2023-10-31T12:34:24;96739.23;;;20.44;54.01
76815;BME280;65768;49.906;19.384;2023-10-31T12:36:56;96732.61;;;20.50;53.14
76815;BME280;65768;49.906;19.384;2023-10-31T12:39:27;96727.05;;;20.43;52.91
76815;BME280;65768;49.906;19.384;2023-10-31T12:41:56;96736.90;;;20.25;53.36
76815;BME280;65768;49.906;19.384;2023-10-31T12:44:26;96737.73;;;20.14;53.93
76815;BME280;65768;49.906;19.384;2023-10-31T12:46:55;96738.03;;;20.09;53.73
76815;BME280;65768;49.906;19.384;2023-10-31T12:49:24;96751.72;;;20.08;55.03
76815;BME280;65768;49.906;19.384;2023-10-31T12:52:01;96758.92;;;19.97;56.12
76815;BME280;65768;49.906;19.384;2023-10-31T12:54:34;96764.55;;;19.95;55.71
76815;BME280;65768;49.906;19.384;2023-10-31T12:57:06;96763.55;;;19.85;56.21
76815;BME280;65768;49.906;19.384;2023-10-31T12:59:36;96764.23;;;19.71;56.29
76815;BME280;65768;49.906;19.384;2023-10-31T13:02:07;96764.34;;;19.56;56.81
76815;BME280;65768;49.906;19.384;2023-10-31T13:04:36;96760.39;;;19.54;56.57
76815;BME280;65768;49.906;19.384;2023-10-31T13:07:05;96768.13;;;19.46;56.91